createdAt,value
2016-11-04T00:02:53.057Z,80.06
2016-11-04T00:06:30.021Z,80.06
2016-11-04T00:10:07.358Z,80.34
2016-11-04T00:13:43.937Z,80.4
2016-11-04T00:17:20.878Z,80.11
2016-11-04T00:21:04.066Z,80.49
2016-11-04T00:24:43.591Z,82.05
2016-11-04T00:28:27.879Z,82.81
2016-11-04T00:32:32.397Z,79.49
2016-11-04T00:39:56.389Z,79.39
2016-11-04T00:43:53.766Z,79.58
2016-11-04T00:47:31.992Z,81.2
2016-11-04T00:51:09.084Z,79.49
2016-11-04T00:54:46.052Z,79.68
2016-11-04T00:58:22.865Z,79.39
2016-11-04T01:02:00.347Z,79.11
2016-11-04T01:05:37.239Z,79.58
2016-11-04T01:09:14.037Z,79.36
2016-11-04T01:12:51.015Z,79.36
2016-11-04T01:16:28.015Z,79.83
2016-11-04T01:20:05.277Z,79.83
2016-11-04T01:23:42.213Z,80.11
2016-11-04T01:27:19.063Z,79.83
2016-11-04T01:30:56.267Z,79.64
2016-11-04T01:38:48.558Z,79.45
2016-11-04T01:42:24.967Z,80.4
2016-11-04T01:46:01.196Z,79.64
2016-11-04T01:49:38.414Z,80.4
2016-11-04T01:53:15.128Z,80.11
2016-11-04T01:56:52.081Z,79.55
2016-11-04T02:00:28.359Z,79.5
2016-11-04T02:04:04.481Z,80.45
2016-11-04T02:07:40.639Z,83.01
2016-11-04T02:11:17.589Z,83.24
2016-11-04T02:14:53.917Z,80.21
2016-11-04T02:18:30.569Z,80.3
2016-11-04T02:22:06.859Z,79.83
2016-11-04T02:25:43.996Z,81.34
2016-11-04T02:34:34.743Z,82.01
2016-11-04T02:38:11.585Z,83.09
2016-11-04T02:41:48.161Z,82.33
2016-11-04T02:45:19.985Z,79.49
2016-11-04T02:48:57.734Z,80.68
2016-11-04T02:52:34.002Z,82.67
2016-11-04T02:56:44.620Z,82.43
2016-11-04T03:00:21.363Z,82.14
2016-11-04T03:03:57.071Z,82.24
2016-11-04T03:07:34.205Z,81.76
2016-11-04T03:11:10.296Z,81.67
2016-11-04T03:14:48.468Z,81.48
2016-11-04T03:18:58.190Z,80.25
2016-11-04T03:22:32.303Z,80.44
2016-11-04T03:26:08.908Z,80.63
2016-11-04T03:29:47.038Z,80.82
2016-11-04T03:33:57.729Z,80.63
2016-11-04T03:38:03.992Z,80.53
2016-11-04T03:41:40.381Z,80.72
2016-11-04T03:45:16.826Z,80.06
2016-11-04T03:48:52.980Z,81.1
2016-11-04T03:52:31.045Z,81.48
2016-11-04T03:56:07.717Z,80.53
2016-11-04T03:59:44.691Z,83.75
2016-11-04T04:03:30.655Z,84.38
2016-11-04T04:07:07.535Z,84.66
2016-11-04T04:10:43.719Z,83.81
2016-11-04T04:14:20.961Z,84
2016-11-04T04:17:57.079Z,82.81
2016-11-04T04:21:33.900Z,82.24
2016-11-04T04:25:10.200Z,82.24
2016-11-04T04:28:47.067Z,82.28
2016-11-04T04:32:23.568Z,81.81
2016-11-04T04:36:01.625Z,81.14
2016-11-04T04:40:01.864Z,81.52
2016-11-04T04:43:39.361Z,81.24
2016-11-04T04:47:20.316Z,81.43
2016-11-04T04:50:57.383Z,81.62
2016-11-04T04:54:37.857Z,80.76
2016-11-04T04:58:38.058Z,80.19
2016-11-04T05:02:16.012Z,80.48
2016-11-04T05:05:53.636Z,80.57
2016-11-04T05:09:30.706Z,81.99
2016-11-04T05:13:07.961Z,83.28
2016-11-04T05:16:46.739Z,83.09
2016-11-04T05:20:24.113Z,87.07
2016-11-04T05:24:01.031Z,81.37
2016-11-04T05:27:38.580Z,81.14
2016-11-04T05:31:16.731Z,81.43
2016-11-04T05:34:54.426Z,81.38
2016-11-04T05:38:31.461Z,82.14
2016-11-04T05:42:08.228Z,82.24
2016-11-04T05:45:44.902Z,81.95
2016-11-04T05:49:21.849Z,81.76
2016-11-04T05:52:58.086Z,81.95
2016-11-04T05:56:35.493Z,81.48
2016-11-04T06:00:12.046Z,81.38
2016-11-04T06:03:49.006Z,80.82
2016-11-04T06:07:26.732Z,81.1
2016-11-04T06:11:03.576Z,81.1
2016-11-04T06:14:40.284Z,81.01
2016-11-04T06:18:12.889Z,81.57
2016-11-04T06:21:49.000Z,81.01
2016-11-04T06:25:25.676Z,80.72
2016-11-04T06:29:03.070Z,81.01
2016-11-04T06:32:40.106Z,81.2
2016-11-04T06:36:16.682Z,82.33
2016-11-04T06:39:54.741Z,82.05
2016-11-04T06:43:31.071Z,81.29
2016-11-04T06:47:08.222Z,81.86
2016-11-04T06:50:44.736Z,81.95
2016-11-04T06:54:22.080Z,82.24
2016-11-04T06:57:58.977Z,82.24
2016-11-04T07:01:37.336Z,82.33
2016-11-04T07:05:13.520Z,81.67
2016-11-04T07:08:50.549Z,82.05
2016-11-04T07:12:26.924Z,81.38
2016-11-04T07:16:03.838Z,81.76
2016-11-04T07:20:08.799Z,82.24
2016-11-04T07:54:17.388Z,79.72
2016-11-04T07:58:04.962Z,79.25
2016-11-04T08:01:37.077Z,78.91
2016-11-04T08:04:54.565Z,78.58
2016-11-04T08:08:26.648Z,78.81
2016-11-04T08:11:43.918Z,78.81
2016-11-04T08:15:15.906Z,79
2016-11-04T08:18:47.782Z,78.72
2016-11-04T08:22:19.409Z,78.62
2016-11-04T08:29:22.890Z,78.15
2016-11-04T08:33:09.562Z,77.67
2016-11-04T08:39:58.812Z,78.15
2016-11-04T08:43:45.131Z,78.15
2016-11-04T08:47:17.991Z,77.67
2016-11-04T08:51:04.786Z,78.09
2016-11-04T08:54:51.754Z,78.19
2016-11-04T09:02:24.584Z,78.56
2016-11-04T09:05:41.646Z,78.19
2016-11-04T09:08:58.736Z,76.67
2016-11-04T09:12:16.052Z,76.39
2016-11-04T09:15:33.342Z,76.32
2016-11-04T09:18:50.747Z,76.14
2016-11-04T09:22:22.968Z,75.85
2016-11-04T09:25:40.210Z,75.19
2016-11-04T09:28:57.443Z,74.24
2016-11-04T09:32:14.795Z,74.43
2016-11-04T09:35:46.819Z,75.85
2016-11-04T09:39:33.343Z,75.28
2016-11-04T09:42:50.466Z,75.67
2016-11-04T09:46:07.888Z,76.18
2016-11-04T09:49:25.435Z,74.75
2016-11-04T09:52:42.787Z,74.71
2016-11-04T09:55:59.502Z,74.27
2016-11-04T09:59:17.746Z,72.56
2016-11-04T10:02:35.101Z,72.95
2016-11-04T10:05:51.852Z,72
2016-11-04T10:09:09.191Z,72.47
2016-11-04T10:12:25.823Z,72.28
2016-11-04T10:15:43.858Z,71.62
2016-11-04T10:19:01.468Z,72.09
2016-11-04T10:22:18.864Z,70.23
2016-11-04T10:25:35.776Z,70.61
2016-11-04T10:28:52.795Z,70.32
2016-11-04T10:32:09.867Z,70.23
2016-11-04T10:35:27.214Z,69.91
2016-11-04T10:38:43.777Z,69.85
2016-11-04T10:42:00.551Z,69.18
2016-11-04T10:45:17.707Z,69.46
2016-11-04T10:48:35.028Z,69.27
2016-11-04T10:51:51.977Z,69.27
2016-11-04T10:55:08.747Z,69.46
2016-11-04T10:58:25.761Z,69.37
2016-11-04T11:01:42.659Z,68.99
2016-11-04T11:04:59.856Z,68.71
2016-11-04T11:08:16.655Z,70.04
2016-11-04T11:11:33.820Z,68.52
2016-11-04T11:14:50.914Z,68.36
2016-11-04T11:18:07.783Z,68.13
2016-11-04T11:21:24.778Z,67.79
2016-11-04T11:24:41.607Z,67.5
2016-11-04T11:27:58.749Z,67.32
2016-11-04T11:31:15.032Z,67.47
2016-11-04T11:34:32.206Z,66.94
2016-11-04T11:37:48.855Z,65.89
2016-11-04T11:41:05.630Z,65.22
2016-11-04T11:44:22.634Z,66.02
2016-11-04T11:47:39.861Z,65.6
2016-11-04T11:50:56.586Z,66.08
2016-11-04T11:54:13.445Z,66.84
2016-11-04T11:57:30.615Z,66.74
2016-11-04T12:00:47.501Z,67.03
2016-11-04T12:04:04.464Z,65.89
2016-11-04T12:07:22.115Z,66.17
2016-11-04T12:10:38.724Z,67.22
2016-11-04T12:13:55.629Z,67.03
2016-11-04T12:17:12.440Z,67.13
2016-11-04T12:20:44.225Z,66.74
2016-11-04T12:24:00.843Z,67.22
2016-11-04T12:27:18.752Z,66.74
2016-11-04T12:30:35.409Z,66.36
2016-11-04T12:33:52.616Z,67.03
2016-11-04T12:37:09.358Z,66.84
2016-11-04T12:40:27.044Z,66.08
2016-11-04T12:43:43.561Z,65.89
2016-11-04T12:47:01.120Z,65.35
2016-11-04T12:51:17.457Z,66.02
2016-11-04T12:54:34.918Z,65.64
2016-11-04T12:57:52.318Z,65.25
2016-11-04T13:04:56.759Z,65.64
2016-11-04T13:08:13.844Z,65.83
2016-11-04T13:11:30.801Z,65.73
2016-11-04T13:14:48.868Z,66.02
2016-11-04T13:29:03.772Z,66.11
2016-11-04T13:32:50.445Z,65.73
2016-11-04T13:36:22.230Z,66.39
2016-11-04T13:39:39.601Z,66.49
2016-11-04T13:42:56.087Z,66.49
2016-11-04T13:46:13.259Z,66.39
2016-11-04T13:49:29.923Z,66.97
2016-11-04T13:57:02.752Z,66.87
2016-11-04T14:00:20.142Z,66.59
2016-11-04T14:03:37.354Z,66.39
2016-11-04T14:06:54.817Z,66.39
2016-11-04T14:10:11.766Z,66.97
2016-11-04T14:13:28.534Z,66.97
2016-11-04T14:16:46.321Z,66.87
2016-11-04T14:20:03.493Z,66.87
2016-11-04T14:23:21.232Z,67.44
2016-11-04T14:26:38.166Z,67.73
2016-11-04T14:29:55.486Z,67.35
2016-11-04T14:33:12.753Z,67.44
2016-11-04T14:36:29.439Z,66.78
2016-11-04T14:39:46.395Z,67.82
2016-11-04T14:43:03.345Z,67.63
2016-11-04T14:46:20.834Z,67.82
2016-11-04T14:49:37.828Z,68.11
2016-11-04T14:52:55.437Z,67.73
2016-11-04T14:56:12.197Z,67.07
2016-11-04T14:59:30.617Z,67.82
2016-11-04T15:02:47.520Z,67.82
2016-11-04T15:06:04.982Z,68.77
2016-11-04T15:09:21.759Z,68.96
2016-11-04T15:12:39.035Z,69.35
2016-11-04T15:15:55.944Z,69.92
2016-11-04T15:19:13.095Z,70.01
2016-11-04T15:22:45.098Z,70.01
2016-11-04T15:26:31.403Z,69.63
2016-11-04T15:29:48.556Z,69.92
2016-11-04T15:33:35.639Z,70.3
2016-11-04T15:37:07.371Z,70.58
2016-11-04T15:40:53.735Z,71.69
2016-11-04T15:44:11.071Z,71.5
2016-11-04T15:47:27.985Z,71.88
2016-11-04T15:50:44.907Z,72.26
2016-11-04T15:54:02.675Z,72.55
2016-11-04T15:57:23.649Z,73.02
2016-11-04T16:00:42.238Z,73.69
2016-11-04T16:04:00.187Z,73.97
2016-11-04T16:37:08.948Z,73.4
2016-11-04T16:41:06.394Z,72.55
2016-11-04T16:44:45.283Z,72.26
2016-11-04T16:48:22.801Z,72.64
2016-11-04T16:51:59.498Z,72.07
2016-11-04T16:55:36.227Z,72.45
2016-11-04T16:59:13.825Z,73.4
2016-11-04T17:02:50.431Z,74.54
2016-11-04T17:06:26.777Z,74.63
2016-11-04T17:10:04.601Z,74.16
2016-11-04T17:13:41.211Z,73.88
2016-11-04T17:17:17.564Z,74.35
2016-11-04T17:20:54.643Z,74.44
2016-11-04T17:33:22.165Z,74.44
2016-11-04T17:36:58.966Z,74.82
2016-11-04T17:40:35.614Z,75.26
2016-11-04T17:44:11.961Z,76.21
2016-11-04T17:48:15.650Z,75.36
2016-11-04T17:51:55.189Z,76.12
2016-11-04T17:55:31.313Z,77.17
2016-11-04T17:59:08.723Z,76.4
2016-11-04T18:02:44.818Z,76.21
2016-11-04T18:06:21.782Z,75.93
2016-11-04T18:09:58.343Z,76.4
2016-11-04T18:13:35.420Z,75.64
2016-11-04T18:32:50.903Z,77.64
2016-11-04T18:36:56.887Z,78.3
2016-11-04T18:41:30.866Z,76.78
2016-11-04T18:45:09.153Z,76.5
2016-11-04T18:48:44.944Z,76.59
2016-11-04T18:52:20.961Z,76.21
2016-11-04T18:55:56.898Z,76.12
2016-11-04T18:59:33.759Z,76.03
2016-11-04T19:03:10.509Z,75.74
2016-11-04T19:15:34.782Z,74.73
2016-11-04T19:19:10.816Z,75.87
2016-11-04T19:22:48.155Z,76.16
2016-11-04T19:26:24.885Z,77.07
2016-11-04T19:30:01.431Z,79.83
2016-11-04T19:33:38.767Z,75.11
2016-11-04T19:37:16.735Z,75.96
2016-11-04T19:40:53.307Z,75.11
2016-11-04T19:44:29.143Z,75.49
2016-11-04T19:48:05.767Z,75.4
2016-11-04T19:51:42.981Z,75.59
2016-11-04T19:55:19.500Z,74.35
2016-11-04T19:58:56.657Z,74.35
2016-11-04T20:02:33.246Z,74.44
2016-11-04T20:06:10.344Z,74.26
2016-11-04T20:09:47.501Z,74.44
2016-11-04T20:13:25.224Z,74.07
2016-11-04T20:17:05.188Z,75.11
2016-11-04T20:20:41.274Z,76.25
2016-11-04T20:24:18.061Z,78.06
2016-11-04T20:27:53.630Z,79.01
2016-11-04T20:31:59.362Z,78.44
2016-11-04T20:35:39.633Z,77.39
2016-11-04T20:39:16.515Z,77.77
2016-11-04T20:42:53.367Z,76.54
2016-11-04T20:56:50.226Z,79.3
2016-11-04T21:00:26.288Z,79.39
2016-11-04T21:04:02.993Z,79.39
2016-11-04T21:08:40.651Z,81.1
2016-11-04T21:12:16.908Z,81.16
2016-11-04T21:15:53.369Z,81.73
2016-11-04T21:19:37.611Z,81.58
2016-11-04T21:23:43.100Z,79.96
2016-11-04T21:27:15.572Z,79.86
2016-11-04T21:30:52.360Z,80.34
2016-11-04T21:34:28.889Z,81.06
2016-11-04T21:38:05.657Z,81.44
2016-11-04T21:42:10.405Z,80.68
2016-11-04T21:49:32.282Z,81.06
2016-11-04T21:53:08.348Z,82.39
2016-11-04T22:26:28.125Z,82.39
2016-11-04T22:43:34.628Z,82.1
2016-11-04T22:46:51.606Z,81.73
2016-11-04T22:50:08.755Z,81.92
2016-11-04T22:53:25.817Z,82.96
2016-11-04T22:56:42.919Z,81.92
2016-11-04T23:00:00.448Z,82.29
2016-11-04T23:03:17.153Z,82.96
2016-11-04T23:06:34.540Z,83.15
2016-11-04T23:09:50.883Z,83.25
2016-11-04T23:13:09.535Z,83.72
2016-11-04T23:16:26.606Z,84.01
2016-11-04T23:19:44.016Z,83.72
2016-11-04T23:23:01.073Z,83.25
2016-11-04T23:26:18.209Z,83.44
2016-11-04T23:29:34.849Z,83.34
2016-11-04T23:32:51.952Z,83.44
2016-11-04T23:36:08.611Z,84.01
2016-11-04T23:39:25.331Z,84.77
2016-11-04T23:42:42.440Z,84.82
2016-11-04T23:45:59.155Z,84.53
2016-11-04T23:49:15.557Z,83.97
2016-11-04T23:52:32.896Z,83.91
2016-11-04T23:55:49.274Z,83.82
2016-11-04T23:59:06.695Z,83.72
